KOZW

Details ICAO KOZW
Name LIVINGSTON CO SPENCER J HARDY
Region United States
Timezone America/Detroit (UTC-5.0)
Plans Departing 8
Arriving 7
Stats Elevation 962 ft / 293 m (AMSL)
Location 42.629428° -83.982193°
Runways 1
Magnetic Variation 6.910° W
Sunrise 2017-12-13 12:59:09 UTC / 2017-12-13 07:59:09 Local
Sunset 2017-12-13 22:04:10 UTC / 2017-12-13 17:04:10 Local
Advertisement - Login to hide

Runways

ID Width Length Bearing (true) Bearing (mag) Surface Threshold Offset Overrun Length
13 100 ft / 30 m 4,997 ft / 1,523 m 127.45° 134.36° Asphalt 0 ft / 0 m 0 ft / 0 m
31 100 ft / 30 m 4,997 ft / 1,523 m 307.46° 314.37° Asphalt 0 ft / 0 m 0 ft / 0 m

Map

Weather


0- 5 10 15 20 25 30 35+ Temperature / ° C

Clouds and Precipitation
Forecast for 2017-12-14 00:00 UTC. Updated 2 hours ago

Ground ~20,000 ft ~40,000 ft Winds

METAR

KOZW 132256Z AUTO 11008KT 3/4SM SN OVC006 M06/M07 A2941 RMK AO2 T10621068

TAF

Not found

Frequencies

Recorded 118.87 MHz AWOS 3
Approach 127.50 MHz DETROIT APP
Unicom 123.00 MHz CTAF/UNICOM
Departure 127.50 MHz DETROIT DEP
Warning: Do not use this data for real-world aviation or navigation. No guarantee of current accuracy is given.